Time;durP1;ratioP1;P1;durP2;ratioP2;P2;SDS_P1;SDS_P2;PMS_P1;PMS_P2;Temp;Humidity;BMP_temperature;BMP_pressure;BME280_temperature;BME280_humidity;BME280_pressure;Samples;Min_cycle;Max_cycle;Signal;HPM_P1;HPM_P2
2021/11/09 00:02:33;;;;;;;32.73;14.17;;;;;4.50;102000.00;;;;10425114;28;20210;-79
2021/11/09 00:07:50;;;;;;;27.80;13.87;;;;;4.30;101993.00;;;;10424434;28;20260;-78
2021/11/09 00:12:55;;;;;;;29.00;14.50;;;;;4.20;101990.00;;;;10408925;28;20206;-78
2021/11/09 00:18:01;;;;;;;27.10;12.27;;;;;4.40;101996.00;;;;10397514;28;20202;-78
2021/11/09 00:23:04;;;;;;;36.23;13.47;;;;;4.60;101991.00;;;;10421077;28;20237;-79
2021/11/09 00:28:08;;;;;;;36.77;13.50;;;;;4.70;102003.00;;;;10409136;28;20310;-79
2021/11/09 00:33:10;;;;;;;37.27;13.23;;;;;4.70;102009.00;;;;10391944;28;20737;-79
2021/11/09 00:38:13;;;;;;;30.20;13.30;;;;;4.60;102012.00;;;;10385967;28;20211;-79
2021/11/09 00:43:17;;;;;;;35.20;12.70;;;;;4.50;102019.00;;;;10385796;28;20206;-79
2021/11/09 00:48:19;;;;;;;27.07;13.03;;;;;4.40;102011.00;;;;10385361;28;20219;-79
2021/11/09 00:53:22;;;;;;;39.83;14.60;;;;;4.30;102014.00;;;;10385829;28;20211;-79
2021/11/09 00:58:25;;;;;;;37.00;14.90;;;;;4.30;102007.00;;;;10369756;28;20203;-79
2021/11/09 01:03:28;;;;;;;33.60;13.80;;;;;4.30;102007.00;;;;10385777;28;20206;-79
2021/11/09 01:08:30;;;;;;;33.70;15.13;;;;;4.20;102012.00;;;;10387169;28;20219;-79
2021/11/09 01:13:32;;;;;;;39.53;15.17;;;;;4.20;102003.00;;;;10384798;28;20203;-79
2021/11/09 01:18:41;;;;;;;31.43;14.67;;;;;4.20;102019.00;;;;10382082;28;20195;-79
2021/11/09 01:23:46;;;;;;;38.80;15.10;;;;;4.10;102009.00;;;;10383895;28;20199;-79
2021/11/09 01:28:50;;;;;;;29.17;15.23;;;;;4.10;102007.00;;;;10330353;28;20207;-79
2021/11/09 01:33:53;;;;;;;30.27;14.27;;;;;4.10;102006.00;;;;10359169;28;20215;-79
2021/11/09 01:38:57;;;;;;;30.40;14.53;;;;;4.00;102007.00;;;;10342791;28;20221;-79
2021/11/09 01:44:00;;;;;;;33.03;14.43;;;;;3.90;102013.00;;;;10391524;28;20211;-79
2021/11/09 01:49:03;;;;;;;41.63;15.13;;;;;3.90;102005.00;;;;10375004;28;20315;-79
2021/11/09 01:54:06;;;;;;;33.83;14.63;;;;;3.90;102012.00;;;;10374801;28;20199;-79
2021/11/09 01:59:08;;;;;;;36.20;16.47;;;;;3.90;102008.00;;;;10374928;28;20227;-79
2021/11/09 02:04:11;;;;;;;33.93;15.27;;;;;3.90;102016.00;;;;10375879;28;20191;-78
2021/11/09 02:09:16;;;;;;;39.10;16.40;;;;;3.90;102011.00;;;;10391482;28;20745;-78
2021/11/09 02:14:19;;;;;;;45.93;16.90;;;;;3.90;102021.00;;;;10366633;28;20199;-79
2021/11/09 02:19:21;;;;;;;43.17;16.83;;;;;3.90;102026.00;;;;10366830;28;20682;-78
2021/11/09 02:24:23;;;;;;;49.93;17.20;;;;;4.00;102030.00;;;;10366384;28;20202;-78
2021/11/09 02:29:25;;;;;;;40.23;17.60;;;;;4.10;102027.00;;;;10386813;28;20226;-78
2021/11/09 02:34:27;;;;;;;31.67;14.97;;;;;4.10;102034.00;;;;10423287;28;20198;-78
2021/11/09 02:39:29;;;;;;;42.67;15.13;;;;;4.10;102024.00;;;;10390876;28;20206;-78
2021/11/09 02:44:32;;;;;;;45.77;18.67;;;;;4.20;102026.00;;;;10423309;28;20261;-79
2021/11/09 02:49:57;;;;;;;40.03;17.53;;;;;4.20;102032.00;;;;10406590;28;20218;-78
2021/11/09 02:55:04;;;;;;;38.83;16.57;;;;;4.20;102033.00;;;;10406438;28;20275;-78
2021/11/09 03:06:16;;;;;;;39.53;15.63;;;;;4.00;102027.00;;;;10406161;28;20292;-78
2021/11/09 03:10:52;;;;;;;34.07;15.00;;;;;4.00;102014.00;;;;10400934;28;20206;-78
2021/11/09 03:15:58;;;;;;;43.60;16.67;;;;;4.00;102023.00;;;;10438664;28;20198;-78
2021/11/09 03:47:38;;;;;;;51.93;18.30;;;;;3.90;102014.00;;;;10364730;28;20218;-78
2021/11/09 03:52:44;;;;;;;35.87;16.97;;;;;4.00;102019.00;;;;10372484;28;20217;-78
2021/11/09 03:58:04;;;;;;;39.47;16.87;;;;;4.00;102022.00;;;;10388095;28;20773;-78
2021/11/09 04:08:36;;;;;;;34.90;15.13;;;;;4.00;102027.00;;;;10387332;28;20277;-77
2021/11/09 04:19:14;;;;;;;35.93;15.60;;;;;4.10;102036.00;;;;10386841;28;20195;-78
2021/11/09 04:35:14;;;;;;;47.67;16.57;;;;;4.20;102045.00;;;;10427044;28;20190;-77
2021/11/09 05:01:30;;;;;;;29.43;13.80;;;;;3.90;102064.00;;;;10442768;28;20260;-77
2021/11/09 05:11:52;;;;;;;34.70;12.97;;;;;3.60;102067.00;;;;10426989;28;20198;-80
2021/11/09 05:16:54;;;;;;;30.33;14.23;;;;;3.60;102064.00;;;;10428016;28;20276;-80
2021/11/09 05:21:56;;;;;;;35.17;14.23;;;;;3.60;102069.00;;;;10408885;28;20198;-80
2021/11/09 05:26:58;;;;;;;35.13;13.50;;;;;3.70;102070.00;;;;10423688;28;20210;-79
2021/11/09 05:32:01;;;;;;;33.93;13.20;;;;;3.70;102068.00;;;;10425273;28;20226;-79
2021/11/09 05:37:06;;;;;;;30.40;13.57;;;;;3.60;102068.00;;;;10409237;28;20704;-79
2021/11/09 05:42:09;;;;;;;25.40;13.17;;;;;3.60;102078.00;;;;10408695;28;20195;-79
2021/11/09 05:47:12;;;;;;;34.60;13.27;;;;;3.50;102095.00;;;;10424654;28;20280;-80
2021/11/09 05:52:14;;;;;;;31.80;15.03;;;;;3.40;102082.00;;;;10407568;28;20627;-79
2021/11/09 05:57:16;;;;;;;29.90;13.67;;;;;3.50;102088.00;;;;10440620;28;20194;-79
2021/11/09 06:02:18;;;;;;;32.97;13.47;;;;;3.50;102095.00;;;;10424428;28;20762;-79
2021/11/09 06:07:22;;;;;;;37.83;13.50;;;;;3.50;102095.00;;;;10408906;28;20253;-79
2021/11/09 06:12:24;;;;;;;39.07;16.63;;;;;3.40;102096.00;;;;10423766;28;20237;-80
2021/11/09 06:17:25;;;;;;;39.63;14.73;;;;;3.40;102091.00;;;;10424015;28;20198;-79
2021/11/09 06:22:27;;;;;;;28.57;14.67;;;;;3.30;102105.00;;;;10423553;28;20214;-80
2021/11/09 06:27:29;;;;;;;35.17;13.43;;;;;3.20;102100.00;;;;10423134;28;20298;-80
2021/11/09 06:32:31;;;;;;;33.33;12.13;;;;;3.20;102096.00;;;;10406506;28;20222;-80
2021/11/09 06:37:35;;;;;;;31.30;11.77;;;;;3.40;102104.00;;;;10406395;28;20244;-80
2021/11/09 06:42:36;;;;;;;28.40;12.13;;;;;3.60;102116.00;;;;10422732;28;20228;-79
2021/11/09 06:47:38;;;;;;;36.53;11.33;;;;;3.80;102121.00;;;;10405934;28;20625;-80
2021/11/09 06:52:45;;;;;;;41.27;12.33;;;;;3.90;102135.00;;;;10405635;28;20205;-79
2021/11/09 06:57:47;;;;;;;31.37;12.53;;;;;3.90;102132.00;;;;10422895;28;20198;-79
2021/11/09 07:02:49;;;;;;;26.63;10.93;;;;;3.80;102143.00;;;;10423011;28;20206;-79
2021/11/09 07:07:51;;;;;;;30.27;10.37;;;;;3.70;102137.00;;;;10422327;28;20827;-79
2021/11/09 07:12:53;;;;;;;30.53;9.73;;;;;3.70;102137.00;;;;10421898;28;20206;-80
2021/11/09 07:17:55;;;;;;;32.87;11.33;;;;;3.80;102134.00;;;;10428352;28;20198;-79
2021/11/09 07:23:00;;;;;;;42.80;11.77;;;;;3.90;102139.00;;;;10430053;28;20549;-80
2021/11/09 07:28:03;;;;;;;27.87;11.80;;;;;4.00;102146.00;;;;10429663;28;20340;-79
2021/11/09 07:33:05;;;;;;;39.53;12.80;;;;;4.10;102156.00;;;;10429076;28;20632;-79
2021/11/09 07:38:07;;;;;;;36.33;11.50;;;;;4.30;102156.00;;;;10413204;28;20202;-79
2021/11/09 07:43:09;;;;;;;39.50;12.17;;;;;4.50;102165.00;;;;10397113;28;20873;-79
2021/11/09 07:48:12;;;;;;;31.60;12.37;;;;;4.70;102177.00;;;;10411369;28;20214;-79
2021/11/09 07:53:16;;;;;;;43.10;12.50;;;;;5.00;102172.00;;;;10431328;28;20799;-79
2021/11/09 08:14:04;;;;;;;38.70;12.73;;;;;5.80;102195.00;;;;10426988;28;20198;-79
2021/11/09 08:19:06;;;;;;;34.40;13.60;;;;;6.10;102196.00;;;;10427695;28;20253;-79
2021/11/09 08:24:09;;;;;;;42.43;14.17;;;;;6.40;102197.00;;;;10426336;28;20276;-80
2021/11/09 08:29:12;;;;;;;35.43;14.57;;;;;6.80;102204.00;;;;10408954;28;20284;-79
2021/11/09 08:34:15;;;;;;;37.43;14.03;;;;;7.50;102225.00;;;;10410011;28;20653;-76
2021/11/09 08:39:22;;;;;;;31.33;10.30;;;;;8.10;102233.00;;;;10443389;28;20205;-79
2021/11/09 08:44:27;;;;;;;26.80;8.50;;;;;8.70;102238.00;;;;10407841;28;20216;-79
2021/11/09 08:49:35;;;;;;;20.70;7.20;;;;;9.20;102240.00;;;;10411075;28;20242;-80
2021/11/09 08:55:28;;;;;;;23.07;7.27;;;;;9.50;102244.00;;;;10442478;28;20244;-79
2021/11/09 09:05:27;;;;;;;23.47;6.47;;;;;10.30;102245.00;;;;10441776;28;20198;-77
2021/11/09 09:10:32;;;;;;;18.73;5.97;;;;;10.40;102240.00;;;;10391857;28;20221;-77
2021/11/09 09:15:36;;;;;;;19.63;5.80;;;;;10.50;102239.00;;;;10391942;28;20592;-77
2021/11/09 09:20:44;;;;;;;18.77;6.03;;;;;10.60;102235.00;;;;10422056;28;20849;-77
2021/11/09 09:25:51;;;;;;;20.23;5.60;;;;;10.70;102229.00;;;;10402181;28;20242;-77
2021/11/09 09:52:29;;;;;;;18.27;6.63;;;;;11.50;102224.00;;;;10374635;28;20261;-79
2021/11/09 09:57:29;;;;;;;22.03;6.47;;;;;11.70;102228.00;;;;10362953;28;20199;-79
2021/11/09 10:02:31;;;;;;;14.70;5.13;;;;;11.90;102218.00;;;;10379194;28;20202;-78
2021/11/09 10:07:42;;;;;;;20.20;5.77;;;;;12.10;102215.00;;;;10379531;28;20690;-77
2021/11/09 10:12:53;;;;;;;19.47;5.63;;;;;12.40;102226.00;;;;10346310;28;20249;-76
2021/11/09 10:18:00;;;;;;;16.67;5.27;;;;;12.70;102213.00;;;;10376708;28;20250;-76
2021/11/09 10:23:07;;;;;;;20.27;5.50;;;;;12.90;102217.00;;;;10354240;28;20287;-77
2021/11/09 10:28:19;;;;;;;18.07;5.53;;;;;13.20;102212.00;;;;10377655;28;20232;-76
2021/11/09 10:33:26;;;;;;;16.70;5.10;;;;;13.40;102216.00;;;;10387998;28;20248;-77
2021/11/09 10:38:31;;;;;;;16.70;4.23;;;;;13.60;102217.00;;;;10411748;28;20202;-77
2021/11/09 10:43:33;;;;;;;18.70;4.93;;;;;13.80;102214.00;;;;10418704;28;20213;-77
2021/11/09 10:48:42;;;;;;;14.47;4.77;;;;;13.90;102211.00;;;;10385618;28;20703;-77
2021/11/09 10:53:53;;;;;;;17.47;4.97;;;;;14.10;102208.00;;;;10386547;28;20252;-77
2021/11/09 10:59:11;;;;;;;19.53;4.67;;;;;14.30;102199.00;;;;10388136;28;20281;-76
2021/11/09 11:04:13;;;;;;;15.40;3.93;;;;;14.30;102199.00;;;;10436639;28;20714;-77
2021/11/09 11:09:19;;;;;;;15.70;3.93;;;;;14.20;102189.00;;;;10400600;28;20220;-77
2021/11/09 11:14:43;;;;;;;19.67;5.17;;;;;14.30;102180.00;;;;10390735;28;20202;-77
2021/11/09 11:19:54;;;;;;;14.90;4.67;;;;;14.50;102176.00;;;;10394798;28;20617;-77
2021/11/09 11:24:58;;;;;;;11.43;3.67;;;;;14.50;102171.00;;;;10393581;28;20214;-77
2021/11/09 11:30:02;;;;;;;15.07;4.03;;;;;14.50;102163.00;;;;10407702;28;20230;-78
2021/11/09 11:35:05;;;;;;;17.07;3.90;;;;;14.70;102166.00;;;;10413047;28;20210;-77
2021/11/09 11:40:08;;;;;;;15.23;4.83;;;;;14.80;102154.00;;;;10399285;28;20198;-76
2021/11/09 11:45:11;;;;;;;14.17;3.83;;;;;14.90;102151.00;;;;10393503;28;20996;-77
2021/11/09 11:50:13;;;;;;;14.85;3.85;;;;;14.90;102155.00;;;;10404605;28;20631;-77
2021/11/09 11:55:21;;;;;;;16.77;4.10;;;;;14.90;102142.00;;;;10450941;28;20661;-77
2021/11/09 12:00:45;;;;;;;10.73;3.70;;;;;15.00;102133.00;;;;10434277;28;20649;-77
2021/11/09 12:05:49;;;;;;;14.38;4.40;;;;;15.10;102122.00;;;;10408050;28;20213;-77
2021/11/09 12:10:53;;;;;;;11.63;4.13;;;;;15.30;102113.00;;;;10424038;28;20245;-77
2021/11/09 12:16:01;;;;;;;13.60;3.97;;;;;15.40;102109.00;;;;10382952;28;20230;-77
2021/11/09 12:21:05;;;;;;;13.25;3.92;;;;;15.40;102117.00;;;;10428731;28;20233;-77
2021/11/09 12:26:57;;;;;;;19.60;5.53;;;;;15.30;102119.00;;;;10407061;28;20217;-77
2021/11/09 12:32:21;;;;;;;11.00;3.90;;;;;15.20;102096.00;;;;10434252;28;20234;-77
2021/11/09 12:37:24;;;;;;;13.43;5.03;;;;;15.20;102092.00;;;;10440357;28;20677;-77
2021/11/09 12:43:03;;;;;;;17.10;4.10;;;;;15.20;102083.00;;;;10422512;28;20229;-77
2021/11/09 12:48:09;;;;;;;13.02;4.10;;;;;15.20;102094.00;;;;10398481;28;20214;-77
2021/11/09 12:53:13;;;;;;;16.05;4.30;;;;;15.10;102079.00;;;;10451818;28;20203;-77
2021/11/09 12:58:22;;;;;;;16.00;4.20;;;;;15.10;102081.00;;;;10405919;28;20565;-77
2021/11/09 13:03:30;;;;;;;14.82;4.10;;;;;14.90;102067.00;;;;10381439;28;20293;-76
2021/11/09 13:08:43;;;;;;;14.90;4.65;;;;;14.90;102066.00;;;;10408861;28;20218;-76
2021/11/09 13:13:46;;;;;;;15.32;3.50;;;;;14.80;102064.00;;;;10421151;28;20256;-77
2021/11/09 13:18:48;;;;;;;17.23;4.00;;;;;14.80;102058.00;;;;10438446;28;20240;-77
2021/11/09 13:23:52;;;;;;;16.67;4.37;;;;;14.60;102063.00;;;;10390564;28;20228;-77
2021/11/09 13:28:55;;;;;;;16.97;4.87;;;;;14.40;102061.00;;;;10438499;28;20862;-77
2021/11/09 13:34:00;;;;;;;13.13;3.90;;;;;14.40;102052.00;;;;10422227;28;20229;-77
2021/11/09 13:39:21;;;;;;;16.73;4.17;;;;;14.50;102057.00;;;;10435313;28;20249;-77
2021/11/09 13:44:29;;;;;;;14.30;3.50;;;;;14.60;102056.00;;;;10412770;28;20198;-77
2021/11/09 13:49:31;;;;;;;14.10;3.77;;;;;14.50;102056.00;;;;10389594;28;21185;-77
2021/11/09 13:54:40;;;;;;;13.33;4.37;;;;;14.50;102048.00;;;;10411261;28;20209;-77
2021/11/09 13:59:42;;;;;;;12.07;4.10;;;;;14.70;102048.00;;;;10392595;28;20237;-77
2021/11/09 14:10:12;;;;;;;9.17;3.77;;;;;15.30;102048.00;;;;10434761;28;20767;-77
2021/11/09 14:20:22;;;;;;;14.27;4.77;;;;;15.20;102042.00;;;;10437616;28;20200;-77
2021/11/09 14:25:27;;;;;;;13.97;3.90;;;;;15.60;102033.00;;;;10404881;28;20206;-77
2021/11/09 14:30:30;;;;;;;12.77;4.03;;;;;14.10;102029.00;;;;10379760;28;20676;-77
2021/11/09 14:35:34;;;;;;;11.73;3.73;;;;;13.40;102032.00;;;;10426930;28;20277;-77
2021/11/09 14:40:45;;;;;;;14.70;4.30;;;;;12.90;102018.00;;;;10392253;28;20194;-76
2021/11/09 14:46:05;;;;;;;14.87;3.73;;;;;12.60;102020.00;;;;10408309;28;20577;-77
2021/11/09 14:51:31;;;;;;;14.67;4.20;;;;;12.30;102017.00;;;;10418578;28;20228;-77
2021/11/09 14:56:36;;;;;;;12.67;4.00;;;;;12.10;102007.00;;;;10435443;28;20665;-77
2021/11/09 15:02:03;;;;;;;13.73;3.87;;;;;12.80;102005.00;;;;10419752;28;20202;-77
2021/11/09 15:28:22;;;;;;;13.87;3.53;;;;;11.10;102008.00;;;;10409381;28;20630;-77
2021/11/09 15:33:27;;;;;;;13.57;3.67;;;;;10.80;102016.00;;;;10385610;28;20233;-77
2021/11/09 15:38:30;;;;;;;8.90;3.60;;;;;10.70;102023.00;;;;10390016;28;20194;-77
2021/11/09 15:43:33;;;;;;;11.37;3.77;;;;;10.50;102018.00;;;;10422488;28;20252;-76
2021/11/09 15:48:35;;;;;;;17.03;4.07;;;;;10.30;102011.00;;;;10391440;28;20228;-76
2021/11/09 15:53:37;;;;;;;12.90;4.93;;;;;10.20;102013.00;;;;10424155;28;20198;-77
2021/11/09 15:58:39;;;;;;;14.23;5.13;;;;;10.00;102018.00;;;;10408135;28;20206;-77
2021/11/09 16:03:41;;;;;;;18.73;5.70;;;;;9.80;102029.00;;;;10383612;28;20202;-79
2021/11/09 16:08:43;;;;;;;14.77;4.60;;;;;9.60;102034.00;;;;10419672;28;20229;-77
2021/11/09 16:13:45;;;;;;;11.47;4.80;;;;;9.40;102036.00;;;;10416160;28;20257;-77
2021/11/09 16:18:48;;;;;;;13.93;5.03;;;;;9.30;102043.00;;;;10409782;28;20568;-77
2021/11/09 16:23:49;;;;;;;16.03;4.97;;;;;9.10;102043.00;;;;10399123;28;20218;-79
2021/11/09 16:28:51;;;;;;;14.47;4.87;;;;;9.00;102045.00;;;;10432643;28;20248;-79
2021/11/09 16:33:58;;;;;;;25.13;4.90;;;;;9.00;102045.00;;;;10392768;28;20254;-77
2021/11/09 16:39:10;;;;;;;15.20;4.87;;;;;9.00;102054.00;;;;10376374;28;20210;-77
2021/11/09 16:44:16;;;;;;;18.17;6.23;;;;;8.90;102048.00;;;;10385063;28;20214;-75
2021/11/09 16:49:45;;;;;;;17.30;5.13;;;;;8.70;102057.00;;;;10381119;28;20223;-76
2021/11/09 17:05:57;;;;;;;19.37;5.30;;;;;8.20;102054.00;;;;10363617;28;20669;-77
2021/11/09 18:20:30;;;;;;;15.57;8.70;;;;;6.30;102045.00;;;;10381013;28;20195;-79
2021/11/09 18:25:33;;;;;;;23.13;7.93;;;;;6.20;102033.00;;;;10403278;28;20199;-79
2021/11/09 18:30:40;;;;;;;23.37;8.13;;;;;6.10;102028.00;;;;10357510;28;20222;-79
2021/11/09 18:35:43;;;;;;;27.43;12.07;;;;;6.00;102014.00;;;;10353197;28;20331;-79
2021/11/09 18:40:46;;;;;;;18.93;8.77;;;;;5.90;102022.00;;;;10355017;28;20281;-79
2021/11/09 18:45:53;;;;;;;21.23;9.20;;;;;5.80;102012.00;;;;10366324;28;20235;-79
2021/11/09 18:50:55;;;;;;;21.27;9.47;;;;;5.70;102005.00;;;;10397918;28;20241;-79
2021/11/09 18:55:57;;;;;;;21.37;8.90;;;;;5.60;102004.00;;;;10373346;28;20226;-79
2021/11/09 19:00:59;;;;;;;17.90;9.80;;;;;5.50;101987.00;;;;10372707;28;20653;-79
2021/11/09 19:06:03;;;;;;;21.10;10.30;;;;;5.40;101988.00;;;;10348607;28;20207;-79
2021/11/09 19:11:07;;;;;;;14.17;8.67;;;;;5.30;101979.00;;;;10336892;28;20231;-79
2021/11/09 19:16:10;;;;;;;23.00;10.10;;;;;5.20;101985.00;;;;10358159;28;20218;-79
2021/11/09 19:21:13;;;;;;;25.13;10.47;;;;;5.10;101989.00;;;;10362173;28;20210;-79
2021/11/09 19:26:15;;;;;;;24.80;10.87;;;;;5.00;101972.00;;;;10357340;28;20211;-79
2021/11/09 19:31:17;;;;;;;25.40;10.30;;;;;5.00;101974.00;;;;10345687;28;1116723;-78
2021/11/09 19:36:19;;;;;;;27.97;11.43;;;;;4.90;101983.00;;;;10425776;28;20248;-79
2021/11/09 19:41:34;;;;;;;21.57;11.83;;;;;4.80;101968.00;;;;10407467;28;20222;-79
2021/11/09 19:46:39;;;;;;;25.50;12.80;;;;;4.80;101970.00;;;;10404899;28;20209;-79
2021/11/09 19:51:43;;;;;;;23.77;11.77;;;;;4.80;101976.00;;;;10406355;28;20257;-79
2021/11/09 19:56:47;;;;;;;21.27;11.70;;;;;4.70;101975.00;;;;10405944;28;20213;-79
2021/11/09 20:01:51;;;;;;;23.87;10.67;;;;;4.70;101983.00;;;;10389461;28;20558;-79
2021/11/09 20:06:53;;;;;;;26.17;10.83;;;;;4.70;101979.00;;;;10405361;28;20194;-79
2021/11/09 20:11:56;;;;;;;24.67;11.07;;;;;4.60;101988.00;;;;10429793;28;20229;-79
2021/11/09 20:16:59;;;;;;;27.27;11.67;;;;;4.60;101991.00;;;;10446418;28;20209;-79
2021/11/09 20:22:02;;;;;;;31.20;14.23;;;;;4.60;101979.00;;;;10413444;28;20191;-79
2021/11/09 20:27:08;;;;;;;26.27;13.70;;;;;4.80;101987.00;;;;10413600;28;20923;-79
2021/11/09 20:32:10;;;;;;;31.40;15.30;;;;;4.90;101985.00;;;;10428652;28;20584;-79
2021/11/09 20:37:12;;;;;;;28.53;13.43;;;;;4.90;101998.00;;;;10412939;28;20194;-79
2021/11/09 20:42:14;;;;;;;25.57;14.47;;;;;4.80;101992.00;;;;10429405;28;20190;-79
2021/11/09 20:47:16;;;;;;;25.33;14.90;;;;;4.80;102008.00;;;;10412855;28;20624;-79
2021/11/09 20:52:18;;;;;;;32.70;16.33;;;;;4.80;102019.00;;;;10428456;28;20226;-79
2021/11/09 20:57:20;;;;;;;31.30;15.50;;;;;4.80;102007.00;;;;10411371;28;20653;-79
2021/11/09 21:02:24;;;;;;;36.57;14.27;;;;;4.80;102016.00;;;;10427760;28;20600;-79
2021/11/09 21:07:26;;;;;;;30.50;14.50;;;;;4.80;102015.00;;;;10412028;28;20206;-79
2021/11/09 21:12:34;;;;;;;28.07;13.67;;;;;4.80;102022.00;;;;10427664;28;20253;-79
2021/11/09 21:22:57;;;;;;;30.83;14.23;;;;;4.60;102015.00;;;;10427113;28;20244;-79
2021/11/09 21:27:59;;;;;;;35.67;14.17;;;;;4.50;102013.00;;;;10411318;28;20248;-79
2021/11/09 21:38:05;;;;;;;34.73;13.20;;;;;4.30;102008.00;;;;10402411;28;20261;-79
2021/11/09 21:43:10;;;;;;;29.20;14.13;;;;;4.40;102020.00;;;;10370298;28;20210;-79
2021/11/09 21:48:12;;;;;;;44.30;15.70;;;;;4.50;102014.00;;;;10369380;28;20198;-79
2021/11/09 21:53:14;;;;;;;26.90;13.30;;;;;4.60;102015.00;;;;10385506;28;20237;-79
2021/11/09 21:58:18;;;;;;;32.97;14.63;;;;;4.70;102024.00;;;;10344921;28;20234;-79
2021/11/09 22:03:20;;;;;;;32.97;12.67;;;;;4.80;102027.00;;;;10376636;28;20219;-79
2021/11/09 22:08:22;;;;;;;31.23;13.80;;;;;4.90;102038.00;;;;10370234;28;20207;-79
2021/11/09 22:13:25;;;;;;;32.43;13.03;;;;;5.00;102035.00;;;;10368626;28;20195;-79
2021/11/09 22:18:27;;;;;;;32.53;12.83;;;;;5.10;102033.00;;;;10384320;28;20940;-79
2021/11/09 22:23:30;;;;;;;29.37;13.93;;;;;5.10;102042.00;;;;10360073;28;20202;-79
2021/11/09 22:28:32;;;;;;;28.53;12.03;;;;;5.00;102040.00;;;;10391574;28;20805;-79
2021/11/09 22:33:34;;;;;;;28.23;11.80;;;;;4.90;102028.00;;;;10380504;28;20226;-79
2021/11/09 22:38:37;;;;;;;32.03;14.47;;;;;4.90;102032.00;;;;10412446;28;20641;-79
2021/11/09 22:43:39;;;;;;;29.07;12.77;;;;;4.80;102022.00;;;;10441023;28;20653;-79
2021/11/09 22:48:41;;;;;;;30.13;11.57;;;;;4.70;102010.00;;;;10440911;28;20205;-79
2021/11/09 22:53:43;;;;;;;27.13;13.63;;;;;4.60;102013.00;;;;10424891;28;20240;-79
2021/11/09 22:58:45;;;;;;;23.53;12.27;;;;;4.40;102021.00;;;;10407920;28;20190;-79
2021/11/09 23:03:47;;;;;;;33.93;12.60;;;;;4.40;102015.00;;;;10425219;28;20245;-79
2021/11/09 23:08:49;;;;;;;29.73;12.07;;;;;4.30;101995.00;;;;10457115;28;20214;-79
2021/11/09 23:13:51;;;;;;;27.83;13.17;;;;;4.30;101991.00;;;;10457145;28;20190;-79
2021/11/09 23:18:53;;;;;;;27.50;12.13;;;;;4.30;101993.00;;;;10407095;28;20272;-79
2021/11/09 23:24:00;;;;;;;33.13;12.50;;;;;4.20;101982.00;;;;10424115;28;20194;-79
2021/11/09 23:29:03;;;;;;;25.43;11.70;;;;;4.10;101984.00;;;;10425020;28;20301;-79
2021/11/09 23:34:05;;;;;;;25.90;14.60;;;;;4.00;101994.00;;;;10424523;28;20702;-79
2021/11/09 23:39:07;;;;;;;21.30;11.13;;;;;3.90;101986.00;;;;10421306;28;20214;-78
2021/11/09 23:44:09;;;;;;;21.43;11.13;;;;;3.70;101987.00;;;;10407116;28;20194;-79
2021/11/09 23:49:11;;;;;;;21.33;11.70;;;;;3.60;101968.00;;;;10407184;28;20272;-79
2021/11/09 23:54:13;;;;;;;23.00;10.83;;;;;3.60;101973.00;;;;10407170;28;20206;-79
2021/11/09 23:59:18;;;;;;;21.30;10.80;;;;;3.40;101969.00;;;;10444903;28;20191;-79
